createdAt,value
2024-01-07T00:01:29.893Z,-3.13
2024-01-07T00:04:35.862Z,-3.15
2024-01-07T00:07:40.001Z,-3.11
2024-01-07T00:10:43.976Z,-3.03
2024-01-07T00:13:47.948Z,-2.98
2024-01-07T00:16:52.162Z,-2.97
2024-01-07T00:19:56.234Z,-2.95
2024-01-07T00:23:00.342Z,-2.95
2024-01-07T00:26:04.822Z,-2.94
2024-01-07T00:29:08.944Z,-2.96
2024-01-07T00:32:13.086Z,-3.02
2024-01-07T00:35:17.344Z,-3.19
2024-01-07T00:38:21.382Z,-3.28
2024-01-07T00:41:25.931Z,-3.32
2024-01-07T00:44:29.888Z,-3.35
2024-01-07T00:47:33.888Z,-3.34
2024-01-07T00:50:38.380Z,-3.39
2024-01-07T00:53:42.468Z,-3.41
2024-01-07T00:56:46.769Z,-3.38
2024-01-07T00:59:51.822Z,-3.41
2024-01-07T01:02:55.844Z,-3.43
2024-01-07T01:06:00.212Z,-3.47
2024-01-07T01:09:04.382Z,-3.48
2024-01-07T01:12:08.427Z,-3.50
2024-01-07T01:15:12.419Z,-3.59
2024-01-07T01:18:16.637Z,-3.67
2024-01-07T01:21:20.823Z,-3.70
2024-01-07T01:24:24.855Z,-3.73
2024-01-07T01:27:29.070Z,-3.79
2024-01-07T01:30:33.367Z,-3.87
2024-01-07T01:33:37.699Z,-3.95
2024-01-07T01:36:41.886Z,-4.02
2024-01-07T01:39:46.035Z,-4.10
2024-01-07T01:42:50.476Z,-4.13
2024-01-07T01:45:55.233Z,-4.16
2024-01-07T01:49:00.062Z,-4.14
2024-01-07T01:52:05.951Z,-4.14
2024-01-07T01:55:10.189Z,-4.15
2024-01-07T01:58:14.922Z,-4.15
2024-01-07T02:01:19.498Z,-4.19
2024-01-07T02:04:24.331Z,-4.19
2024-01-07T02:07:34.932Z,-4.19
2024-01-07T02:10:41.627Z,-4.20
2024-01-07T02:13:47.775Z,-4.19
2024-01-07T02:16:51.790Z,-4.19
2024-01-07T02:19:55.940Z,-4.14
2024-01-07T02:23:00.258Z,-4.06
2024-01-07T02:26:04.589Z,-3.98
2024-01-07T02:29:08.855Z,-3.94
2024-01-07T02:32:12.844Z,-3.92
2024-01-07T02:35:17.018Z,-3.92
2024-01-07T02:38:20.958Z,-3.90
2024-01-07T02:41:26.857Z,-3.88
2024-01-07T02:44:31.097Z,-3.87
2024-01-07T02:47:35.080Z,-3.91
2024-01-07T02:50:39.130Z,-3.92
2024-01-07T02:53:43.228Z,-3.97
2024-01-07T02:56:47.249Z,-4.00
2024-01-07T02:59:51.879Z,-4.01
2024-01-07T03:02:55.961Z,-4.05
2024-01-07T03:06:00.098Z,-4.07
2024-01-07T03:09:04.130Z,-4.09
2024-01-07T03:12:08.248Z,-4.10
2024-01-07T03:15:12.406Z,-4.15
2024-01-07T03:18:16.446Z,-4.16
2024-01-07T03:21:24.766Z,-4.12
2024-01-07T03:24:28.843Z,-4.05
2024-01-07T03:27:32.965Z,-4.04
2024-01-07T03:30:37.078Z,-4.04
2024-01-07T03:33:43.674Z,-4.05
2024-01-07T03:36:47.726Z,-4.09
2024-01-07T03:39:51.791Z,-4.08
2024-01-07T03:42:55.858Z,-4.12
2024-01-07T03:46:00.667Z,-4.19
2024-01-07T03:49:04.847Z,-4.22
2024-01-07T03:52:09.524Z,-4.23
2024-01-07T03:55:14.253Z,-4.20
2024-01-07T03:58:18.361Z,-4.18
2024-01-07T04:01:22.391Z,-4.24
2024-01-07T04:04:26.602Z,-4.34
2024-01-07T04:07:31.021Z,-4.38
2024-01-07T04:10:34.976Z,-4.39
2024-01-07T04:13:38.971Z,-4.41
2024-01-07T04:16:43.398Z,-4.51
2024-01-07T04:19:47.362Z,-4.55
2024-01-07T04:22:51.361Z,-4.62
2024-01-07T04:25:55.329Z,-4.68
2024-01-07T04:28:59.348Z,-4.69
2024-01-07T04:32:03.910Z,-4.66
2024-01-07T04:35:08.523Z,-4.59
2024-01-07T04:38:12.533Z,-4.57
2024-01-07T04:41:16.480Z,-4.61
2024-01-07T04:44:20.448Z,-4.66
2024-01-07T04:47:29.840Z,-4.76
2024-01-07T04:50:34.083Z,-4.82
2024-01-07T04:53:38.322Z,-4.85
2024-01-07T04:56:42.349Z,-4.86
2024-01-07T04:59:47.782Z,-4.86
2024-01-07T05:02:51.857Z,-4.87
2024-01-07T05:05:55.986Z,-4.90
2024-01-07T05:09:00.053Z,-4.95
2024-01-07T05:12:04.854Z,-4.96
2024-01-07T05:15:10.607Z,-4.94
2024-01-07T05:18:17.687Z,-4.95
2024-01-07T05:21:23.465Z,-4.91
2024-01-07T05:24:27.658Z,-4.87
2024-01-07T05:27:31.705Z,-4.85
2024-01-07T05:30:35.834Z,-4.83
2024-01-07T05:33:40.641Z,-4.88
2024-01-07T05:36:44.891Z,-4.92
2024-01-07T05:39:48.984Z,-4.94
2024-01-07T05:42:53.343Z,-4.95
2024-01-07T05:45:57.646Z,-4.92
2024-01-07T05:49:02.335Z,-4.88
2024-01-07T05:52:06.507Z,-4.87
2024-01-07T05:55:10.598Z,-4.88
2024-01-07T05:58:14.694Z,-4.89
2024-01-07T06:01:22.533Z,-4.88
2024-01-07T06:04:26.727Z,-4.85
2024-01-07T06:07:30.971Z,-4.79
2024-01-07T06:10:35.266Z,-4.74
2024-01-07T06:13:39.254Z,-4.74
2024-01-07T06:16:43.823Z,-4.73
2024-01-07T06:19:47.818Z,-4.75
2024-01-07T06:22:52.247Z,-4.80
2024-01-07T06:25:56.207Z,-4.88
2024-01-07T06:29:00.707Z,-4.89
2024-01-07T06:32:05.217Z,-4.90
2024-01-07T06:35:09.356Z,-4.90
2024-01-07T06:38:13.411Z,-4.96
2024-01-07T06:41:17.540Z,-4.97
2024-01-07T06:44:21.492Z,-4.96
2024-01-07T06:47:25.492Z,-5.03
2024-01-07T06:50:29.612Z,-5.07
2024-01-07T06:53:33.636Z,-5.06
2024-01-07T06:56:37.881Z,-5.07
2024-01-07T06:59:41.867Z,-5.14
2024-01-07T07:02:45.830Z,-5.16
2024-01-07T07:05:49.960Z,-5.14
2024-01-07T07:08:54.032Z,-5.13
2024-01-07T07:11:58.010Z,-5.17
2024-01-07T07:15:01.962Z,-5.19
2024-01-07T07:18:06.390Z,-5.19
2024-01-07T07:21:10.470Z,-5.17
2024-01-07T07:24:14.448Z,-5.11
2024-01-07T07:27:18.410Z,-5.06
2024-01-07T07:30:22.357Z,-5.00
2024-01-07T07:33:26.647Z,-4.98
2024-01-07T07:36:31.078Z,-4.96
2024-01-07T07:39:35.108Z,-4.89
2024-01-07T07:42:39.136Z,-4.86
2024-01-07T07:45:43.167Z,-4.82
2024-01-07T07:48:47.288Z,-4.77
2024-01-07T07:51:52.174Z,-4.73
2024-01-07T07:54:56.258Z,-4.75
2024-01-07T07:58:00.358Z,-4.76
2024-01-07T08:01:05.902Z,-4.68
2024-01-07T08:04:11.415Z,-4.58
2024-01-07T08:07:15.537Z,-4.53
2024-01-07T08:10:19.549Z,-4.56
2024-01-07T08:13:23.665Z,-4.56
2024-01-07T08:16:27.699Z,-4.57
2024-01-07T08:19:32.121Z,-4.54
2024-01-07T08:22:36.167Z,-4.48
2024-01-07T08:25:40.131Z,-4.43
2024-01-07T08:28:44.444Z,-4.42
2024-01-07T08:31:48.527Z,-4.42
2024-01-07T08:34:52.837Z,-4.41
2024-01-07T08:37:57.123Z,-4.39
2024-01-07T08:41:01.155Z,-4.38
2024-01-07T08:44:05.181Z,-4.39
2024-01-07T08:47:09.180Z,-4.34
2024-01-07T08:50:14.384Z,-4.29
2024-01-07T08:53:21.497Z,-4.28
2024-01-07T08:56:26.710Z,-4.30
2024-01-07T08:59:30.966Z,-4.30
2024-01-07T09:02:35.367Z,-4.28
2024-01-07T09:05:39.468Z,-4.29
2024-01-07T09:08:43.948Z,-4.29
2024-01-07T09:11:47.955Z,-4.30
2024-01-07T09:14:51.987Z,-4.31
2024-01-07T09:17:56.055Z,-4.31
2024-01-07T09:21:00.202Z,-4.31
2024-01-07T09:24:05.232Z,-4.32
2024-01-07T09:27:09.768Z,-4.27
2024-01-07T09:30:16.030Z,-4.19
2024-01-07T09:33:21.195Z,-4.08
2024-01-07T09:36:30.061Z,-3.94
2024-01-07T09:39:39.943Z,-3.85
2024-01-07T09:42:44.209Z,-3.76
2024-01-07T09:45:51.616Z,-3.67
2024-01-07T09:48:55.910Z,-3.70
2024-01-07T09:52:04.505Z,-3.70
2024-01-07T09:55:10.664Z,-3.70
2024-01-07T09:58:14.848Z,-3.72
2024-01-07T10:01:19.881Z,-3.73
2024-01-07T10:04:25.482Z,-3.80
2024-01-07T10:07:29.529Z,-3.87
2024-01-07T10:10:36.618Z,-3.84
2024-01-07T10:13:40.652Z,-3.78
2024-01-07T10:16:44.589Z,-3.74
2024-01-07T10:19:48.703Z,-3.72
2024-01-07T10:22:52.988Z,-3.80
2024-01-07T10:26:00.110Z,-3.85
2024-01-07T10:29:04.278Z,-3.87
2024-01-07T10:32:08.295Z,-3.90
2024-01-07T10:35:22.456Z,-3.88
2024-01-07T10:38:26.396Z,-3.88
2024-01-07T10:41:31.438Z,-3.87
2024-01-07T10:44:37.108Z,-3.87
2024-01-07T10:47:44.562Z,-3.93
2024-01-07T10:50:51.692Z,-3.95
2024-01-07T10:53:57.646Z,-3.99
2024-01-07T10:57:22.641Z,-3.97
2024-01-07T11:00:26.734Z,-3.98
2024-01-07T11:03:48.916Z,-3.96
2024-01-07T11:07:12.203Z,-3.92
2024-01-07T11:10:21.798Z,-3.94
2024-01-07T11:13:40.091Z,-3.94
2024-01-07T11:16:45.415Z,-3.99
2024-01-07T11:19:53.637Z,-4.07
2024-01-07T11:23:34.173Z,-4.08
2024-01-07T11:26:40.175Z,-4.13
2024-01-07T11:29:44.458Z,-4.11
2024-01-07T11:32:52.259Z,-4.05
2024-01-07T11:35:58.578Z,-4.06
2024-01-07T11:39:07.638Z,-4.04
2024-01-07T11:42:12.938Z,-4.00
2024-01-07T11:45:17.818Z,-3.97
2024-01-07T11:48:22.016Z,-3.96
2024-01-07T11:51:33.828Z,-3.93
2024-01-07T11:54:39.626Z,-3.91
2024-01-07T11:57:43.745Z,-3.91
2024-01-07T12:00:48.095Z,-3.89
2024-01-07T12:03:52.383Z,-3.90
2024-01-07T12:06:56.425Z,-3.89
2024-01-07T12:10:00.596Z,-3.90
2024-01-07T12:13:05.392Z,-3.92
2024-01-07T12:16:09.978Z,-3.97
2024-01-07T12:19:14.560Z,-4.07
2024-01-07T12:22:19.097Z,-4.16
2024-01-07T12:25:26.929Z,-4.28
2024-01-07T12:28:31.030Z,-4.32
2024-01-07T12:31:35.973Z,-4.27
2024-01-07T12:34:40.399Z,-4.19
2024-01-07T12:37:45.349Z,-4.14
2024-01-07T12:40:49.360Z,-4.11
2024-01-07T12:43:53.600Z,-4.09
2024-01-07T12:46:57.895Z,-4.09
2024-01-07T12:50:01.993Z,-4.07
2024-01-07T12:53:06.739Z,-4.08
2024-01-07T12:56:10.641Z,-4.11
2024-01-07T12:59:14.567Z,-4.22
2024-01-07T13:02:18.538Z,-4.28
2024-01-07T13:05:22.890Z,-4.29
2024-01-07T13:08:28.332Z,-4.30
2024-01-07T13:11:32.844Z,-4.30
2024-01-07T13:14:36.795Z,-4.31
2024-01-07T13:17:40.757Z,-4.31
2024-01-07T13:20:44.862Z,-4.28
2024-01-07T13:23:48.992Z,-4.28
2024-01-07T13:26:53.055Z,-4.33
2024-01-07T13:29:57.021Z,-4.44
2024-01-07T13:33:03.178Z,-4.56
2024-01-07T13:36:10.958Z,-4.61
2024-01-07T13:39:17.484Z,-4.70
2024-01-07T13:42:21.399Z,-4.75
2024-01-07T13:45:26.334Z,-4.80
2024-01-07T13:48:30.653Z,-4.86
2024-01-07T13:51:34.852Z,-4.92
2024-01-07T13:54:39.040Z,-5.01
2024-01-07T13:57:43.371Z,-5.07
2024-01-07T14:00:47.831Z,-5.17
2024-01-07T14:03:53.243Z,-5.22
2024-01-07T14:06:57.519Z,-5.28
2024-01-07T14:10:04.719Z,-5.27
2024-01-07T14:13:09.427Z,-5.16
2024-01-07T14:16:14.585Z,-5.06
2024-01-07T14:19:18.745Z,-5.05
2024-01-07T14:22:23.137Z,-5.07
2024-01-07T14:25:27.231Z,-5.18
2024-01-07T14:28:31.577Z,-5.29
2024-01-07T14:31:35.658Z,-5.33
2024-01-07T14:34:43.652Z,-5.40
2024-01-07T14:37:47.781Z,-5.45
2024-01-07T14:40:53.209Z,-5.51
2024-01-07T14:43:57.383Z,-5.59
2024-01-07T14:47:02.008Z,-5.61
2024-01-07T14:50:08.717Z,-5.55
2024-01-07T14:53:12.892Z,-5.51
2024-01-07T14:56:17.110Z,-5.46
2024-01-07T14:59:21.096Z,-5.38
2024-01-07T15:02:25.053Z,-5.30
2024-01-07T15:05:29.115Z,-5.20
2024-01-07T15:08:33.183Z,-5.11
2024-01-07T15:11:37.266Z,-4.98
2024-01-07T15:14:41.259Z,-4.90
2024-01-07T15:17:45.509Z,-4.89
2024-01-07T15:20:49.646Z,-4.91
2024-01-07T15:23:53.747Z,-4.89
2024-01-07T15:26:58.514Z,-5.00
2024-01-07T15:30:02.425Z,-5.05
2024-01-07T15:33:06.928Z,-5.15
2024-01-07T15:36:11.037Z,-5.24
2024-01-07T15:39:15.047Z,-5.33
2024-01-07T15:42:19.495Z,-5.41
2024-01-07T15:45:23.523Z,-5.47
2024-01-07T15:48:27.705Z,-5.49
2024-01-07T15:51:31.880Z,-5.52
2024-01-07T15:54:35.933Z,-5.60
2024-01-07T15:57:41.246Z,-5.71
2024-01-07T16:00:45.292Z,-5.87
2024-01-07T16:03:49.984Z,-5.92
2024-01-07T16:06:54.130Z,-5.96
2024-01-07T16:09:58.197Z,-5.95
2024-01-07T16:13:02.209Z,-5.93
2024-01-07T16:16:06.580Z,-5.90
2024-01-07T16:19:12.411Z,-5.94
2024-01-07T16:22:17.024Z,-5.93
2024-01-07T16:25:21.496Z,-5.89
2024-01-07T16:28:25.621Z,-5.82
2024-01-07T16:31:29.747Z,-5.74
2024-01-07T16:34:34.036Z,-5.71
2024-01-07T16:37:39.206Z,-5.69
2024-01-07T16:40:43.505Z,-5.68
2024-01-07T16:43:48.901Z,-5.71
2024-01-07T16:46:54.392Z,-5.81
2024-01-07T16:53:06.409Z,-5.95
2024-01-07T16:56:10.500Z,-6.04
2024-01-07T16:59:16.187Z,-6.17
2024-01-07T17:02:21.157Z,-6.27
2024-01-07T17:05:25.478Z,-6.39
2024-01-07T17:08:30.494Z,-6.39
2024-01-07T17:11:34.710Z,-6.39
2024-01-07T17:14:39.058Z,-6.40
2024-01-07T17:17:43.381Z,-6.41
2024-01-07T17:20:49.093Z,-6.33
2024-01-07T17:23:54.434Z,-6.23
2024-01-07T17:26:59.880Z,-6.19
2024-01-07T17:30:04.553Z,-6.22
2024-01-07T17:33:11.701Z,-6.15
2024-01-07T17:36:16.794Z,-6.18
2024-01-07T17:39:20.866Z,-6.19
2024-01-07T17:42:25.555Z,-6.10
2024-01-07T17:45:29.607Z,-6.05
2024-01-07T17:48:33.646Z,-6.01
2024-01-07T17:51:40.245Z,-6.03
2024-01-07T17:54:44.435Z,-6.07
2024-01-07T17:57:48.470Z,-6.14
2024-01-07T18:00:52.500Z,-6.27
2024-01-07T18:03:56.624Z,-6.50
2024-01-07T18:07:01.110Z,-6.67
2024-01-07T18:10:11.616Z,-6.75
2024-01-07T18:13:17.034Z,-6.77
2024-01-07T18:16:21.527Z,-6.75
2024-01-07T18:19:25.775Z,-6.76
2024-01-07T18:22:29.972Z,-6.80
2024-01-07T18:25:34.103Z,-6.73
2024-01-07T18:28:38.430Z,-6.65
2024-01-07T18:31:43.188Z,-6.54
2024-01-07T18:34:47.588Z,-6.51
2024-01-07T18:37:52.407Z,-6.63
2024-01-07T18:40:56.457Z,-6.70
2024-01-07T18:44:00.821Z,-6.73
2024-01-07T18:47:05.756Z,-6.63
2024-01-07T18:50:10.467Z,-6.58
2024-01-07T18:53:14.496Z,-6.56
2024-01-07T18:56:21.592Z,-6.61
2024-01-07T18:59:25.778Z,-6.65
2024-01-07T19:02:30.238Z,-6.64
2024-01-07T19:05:34.561Z,-6.66
2024-01-07T19:08:40.889Z,-6.71
2024-01-07T19:11:45.089Z,-6.75
2024-01-07T19:14:49.134Z,-6.76
2024-01-07T19:17:53.287Z,-6.78
2024-01-07T19:20:57.407Z,-6.82
2024-01-07T19:24:02.905Z,-6.90
2024-01-07T19:27:07.207Z,-7.05
2024-01-07T19:30:11.405Z,-7.17
2024-01-07T19:33:20.571Z,-7.32
2024-01-07T19:36:24.698Z,-7.40
2024-01-07T19:39:28.642Z,-7.44
2024-01-07T19:42:32.704Z,-7.52
2024-01-07T19:45:37.087Z,-7.58
2024-01-07T19:48:41.365Z,-7.53
2024-01-07T19:51:47.652Z,-7.43
2024-01-07T19:54:52.424Z,-7.32
2024-01-07T19:57:56.490Z,-7.24
2024-01-07T20:01:00.679Z,-7.15
2024-01-07T20:04:05.000Z,-7.09
2024-01-07T20:07:09.163Z,-7.07
2024-01-07T20:10:13.191Z,-7.09
2024-01-07T20:13:17.153Z,-7.09
2024-01-07T20:16:21.791Z,-7.05
2024-01-07T20:19:26.568Z,-7.08
2024-01-07T20:22:31.180Z,-7.14
2024-01-07T20:25:35.126Z,-7.25
2024-01-07T20:28:40.064Z,-7.33
2024-01-07T20:31:47.666Z,-7.43
2024-01-07T20:34:53.318Z,-7.57
2024-01-07T20:37:57.387Z,-7.66
2024-01-07T20:41:01.563Z,-7.78
2024-01-07T20:44:05.896Z,-7.81
2024-01-07T20:47:10.025Z,-7.81
2024-01-07T20:50:14.124Z,-7.75
2024-01-07T20:53:21.187Z,-7.72
2024-01-07T20:56:25.492Z,-7.73
2024-01-07T20:59:30.388Z,-7.69
2024-01-07T21:02:34.650Z,-7.69
2024-01-07T21:05:38.886Z,-7.62
2024-01-07T21:08:42.917Z,-7.53
2024-01-07T21:11:46.893Z,-7.59
2024-01-07T21:14:50.847Z,-7.70
2024-01-07T21:18:01.265Z,-7.74
2024-01-07T21:21:05.860Z,-7.69
2024-01-07T21:24:10.987Z,-7.61
2024-01-07T21:27:14.930Z,-7.64
2024-01-07T21:30:19.407Z,-7.75
2024-01-07T21:33:24.491Z,-7.74
2024-01-07T21:36:29.331Z,-7.73
2024-01-07T21:39:33.471Z,-7.75
2024-01-07T21:42:40.166Z,-7.78
2024-01-07T21:45:44.265Z,-7.81
2024-01-07T21:48:49.401Z,-7.75
2024-01-07T21:51:53.620Z,-7.64
2024-01-07T21:54:58.694Z,-7.52
2024-01-07T21:58:03.413Z,-7.49
2024-01-07T22:01:07.380Z,-7.47
2024-01-07T22:04:11.478Z,-7.50
2024-01-07T22:07:15.554Z,-7.54
2024-01-07T22:10:20.722Z,-7.50
2024-01-07T22:13:24.708Z,-7.41
2024-01-07T22:16:30.916Z,-7.32
2024-01-07T22:19:34.894Z,-7.30
2024-01-07T22:22:38.873Z,-7.35
2024-01-07T22:25:43.002Z,-7.46
2024-01-07T22:28:48.078Z,-7.67
2024-01-07T22:31:52.895Z,-7.80
2024-01-07T22:35:00.503Z,-7.96
2024-01-07T22:38:05.724Z,-8.08
2024-01-07T22:41:09.904Z,-8.15
2024-01-07T22:44:16.444Z,-8.15
2024-01-07T22:47:20.955Z,-8.17
2024-01-07T22:50:25.054Z,-8.12
2024-01-07T22:53:29.936Z,-8.15
2024-01-07T22:56:34.091Z,-8.20
2024-01-07T22:59:38.442Z,-8.17
2024-01-07T23:02:45.546Z,-8.13
2024-01-07T23:05:50.273Z,-8.13
2024-01-07T23:08:54.393Z,-8.17
2024-01-07T23:11:58.746Z,-8.13
2024-01-07T23:15:03.550Z,-8.09
2024-01-07T23:18:07.743Z,-8.05
2024-01-07T23:21:12.506Z,-8.04
2024-01-07T23:24:16.471Z,-8.06
2024-01-07T23:27:20.634Z,-7.98
2024-01-07T23:30:24.730Z,-7.89
2024-01-07T23:33:29.855Z,-7.80
2024-01-07T23:36:34.047Z,-7.71
2024-01-07T23:39:38.153Z,-7.63
2024-01-07T23:42:42.187Z,-7.59
2024-01-07T23:45:46.153Z,-7.55
2024-01-07T23:48:50.250Z,-7.51
2024-01-07T23:51:54.418Z,-7.57
2024-01-07T23:54:58.554Z,-7.54
2024-01-07T23:58:02.674Z,-7.48
